createdAt,value
2023-01-17T00:01:12.800Z,97351.96
2023-01-17T00:03:57.225Z,97356.20
2023-01-17T00:06:46.036Z,97357.38
2023-01-17T00:09:34.635Z,97354.50
2023-01-17T00:12:05.594Z,97354.18
2023-01-17T00:14:36.051Z,97359.59
2023-01-17T00:17:06.479Z,97360.96
2023-01-17T00:19:54.491Z,97363.19
2023-01-17T00:22:44.149Z,97360.63
2023-01-17T00:25:34.378Z,97363.20
2023-01-17T00:28:04.588Z,97363.69
2023-01-17T00:30:34.267Z,97365.73
2023-01-17T00:33:04.043Z,97360.99
2023-01-17T00:35:34.587Z,97352.85
2023-01-17T00:38:06.646Z,97348.27
2023-01-17T00:40:37.672Z,97348.45
2023-01-17T00:43:26.257Z,97351.48
2023-01-17T00:46:15.049Z,97350.80
2023-01-17T00:49:03.964Z,97345.06
2023-01-17T00:51:53.584Z,97340.98
2023-01-17T00:54:42.066Z,97344.20
2023-01-17T00:57:30.131Z,97341.16
2023-01-17T01:00:18.033Z,97343.88
2023-01-17T01:03:06.304Z,97347.60
2023-01-17T01:05:55.190Z,97343.52
2023-01-17T01:08:45.476Z,97349.29
2023-01-17T01:11:35.313Z,97356.23
2023-01-17T01:14:25.201Z,97357.58
2023-01-17T01:17:13.132Z,97357.41
2023-01-17T01:20:01.577Z,97361.12
2023-01-17T01:22:49.663Z,97355.21
2023-01-17T01:25:38.064Z,97358.58
2023-01-17T01:28:29.626Z,97359.27
2023-01-17T01:31:19.563Z,97354.18
2023-01-17T01:33:51.737Z,97362.12
2023-01-17T01:36:22.794Z,97364.33
2023-01-17T01:38:54.616Z,97359.42
2023-01-17T01:41:25.477Z,97356.54
2023-01-17T01:43:57.015Z,97356.70
2023-01-17T01:46:33.085Z,97355.36
2023-01-17T01:49:07.202Z,97354.52
2023-01-17T01:51:42.272Z,97358.40
2023-01-17T01:54:16.062Z,97356.20
2023-01-17T01:56:48.425Z,97346.92
2023-01-17T01:59:22.170Z,97337.94
2023-01-17T02:01:57.004Z,97331.34
2023-01-17T02:04:28.719Z,97327.80
2023-01-17T02:07:06.751Z,97332.52
2023-01-17T02:09:37.558Z,97333.71
2023-01-17T02:12:09.609Z,97336.41
2023-01-17T02:14:40.156Z,97340.81
2023-01-17T02:17:21.520Z,97340.98
2023-01-17T02:20:42.493Z,97342.33
2023-01-17T02:23:56.462Z,97347.73
2023-01-17T02:26:55.495Z,97350.95
2023-01-17T02:29:54.835Z,97344.02
2023-01-17T02:32:36.784Z,97347.07
2023-01-17T02:35:14.851Z,97347.56
2023-01-17T02:37:52.140Z,97347.25
2023-01-17T02:40:28.028Z,97343.50
2023-01-17T02:43:02.807Z,97337.43
2023-01-17T02:45:33.284Z,97325.23
2023-01-17T02:48:04.656Z,97327.94
2023-01-17T02:50:48.898Z,97318.29
2023-01-17T02:53:38.054Z,97307.84
2023-01-17T02:56:19.180Z,97308.34
2023-01-17T02:59:05.654Z,97317.29
2023-01-17T03:01:46.400Z,97324.58
2023-01-17T03:04:22.074Z,97328.98
2023-01-17T03:06:56.342Z,97333.70
2023-01-17T03:09:29.074Z,97328.14
2023-01-17T03:12:00.643Z,97328.80
2023-01-17T03:14:34.477Z,97328.63
2023-01-17T03:17:05.181Z,97335.23
2023-01-17T03:19:35.717Z,97338.12
2023-01-17T03:22:06.412Z,97339.65
2023-01-17T03:24:36.861Z,97339.48
2023-01-17T03:27:07.301Z,97337.42
2023-01-17T03:29:37.729Z,97335.73
2023-01-17T03:32:08.744Z,97336.43
2023-01-17T03:34:39.172Z,97329.66
2023-01-17T03:37:09.716Z,97323.23
2023-01-17T03:39:40.134Z,97320.34
2023-01-17T03:42:10.587Z,97320.02
2023-01-17T03:44:41.010Z,97324.23
2023-01-17T03:47:12.449Z,97323.56
2023-01-17T03:49:43.354Z,97332.85
2023-01-17T03:52:13.754Z,97339.95
2023-01-17T03:54:44.351Z,97341.81
2023-01-17T03:57:15.810Z,97334.02
2023-01-17T03:59:47.442Z,97334.86
2023-01-17T04:02:17.916Z,97336.39
2023-01-17T04:04:48.885Z,97334.70
2023-01-17T04:07:19.411Z,97339.27
2023-01-17T04:09:49.858Z,97338.24
2023-01-17T04:12:20.598Z,97343.48
2023-01-17T04:14:51.100Z,97343.98
2023-01-17T04:17:22.175Z,97352.44
2023-01-17T04:19:52.858Z,97359.88
2023-01-17T04:22:23.292Z,97354.97
2023-01-17T04:24:53.772Z,97353.80
2023-01-17T04:27:24.184Z,97357.69
2023-01-17T04:29:54.688Z,97353.98
2023-01-17T04:32:25.105Z,97352.29
2023-01-17T04:34:55.586Z,97358.55
2023-01-17T04:37:26.058Z,97361.59
2023-01-17T04:39:56.537Z,97357.70
2023-01-17T04:42:26.962Z,97359.21
2023-01-17T04:44:57.451Z,97357.85
2023-01-17T04:47:27.955Z,97356.66
2023-01-17T04:49:58.455Z,97351.59
2023-01-17T04:52:28.876Z,97347.67
2023-01-17T04:54:59.386Z,97346.52
2023-01-17T04:57:29.857Z,97351.90
2023-01-17T05:00:00.407Z,97354.60
2023-01-17T05:02:30.907Z,97360.84
2023-01-17T05:05:01.471Z,97362.19
2023-01-17T05:07:31.892Z,97360.16
2023-01-17T05:10:02.300Z,97360.48
2023-01-17T05:12:32.773Z,97365.71
2023-01-17T05:15:03.248Z,97362.16
2023-01-17T05:17:33.682Z,97357.08
2023-01-17T05:20:04.704Z,97342.71
2023-01-17T05:22:35.113Z,97340.52
2023-01-17T05:25:06.066Z,97346.23
2023-01-17T05:27:36.572Z,97345.05
2023-01-17T05:30:09.007Z,97343.54
2023-01-17T05:32:39.453Z,97348.42
2023-01-17T05:35:11.401Z,97346.53
2023-01-17T05:37:48.881Z,97346.36
2023-01-17T05:40:21.711Z,97352.09
2023-01-17T05:42:54.203Z,97350.73
2023-01-17T05:45:28.954Z,97351.05
2023-01-17T05:48:00.321Z,97350.54
2023-01-17T05:50:33.191Z,97351.89
2023-01-17T05:53:05.867Z,97360.71
2023-01-17T05:55:37.317Z,97369.67
2023-01-17T05:58:09.747Z,97372.75
2023-01-17T06:00:40.215Z,97372.77
2023-01-17T06:03:11.416Z,97378.70
2023-01-17T06:05:41.995Z,97379.90
2023-01-17T06:08:12.628Z,97375.00
2023-01-17T06:10:45.235Z,97379.06
2023-01-17T06:13:20.963Z,97378.23
2023-01-17T06:15:51.697Z,97381.63
2023-01-17T06:18:22.152Z,97381.11
2023-01-17T06:20:56.321Z,97379.41
2023-01-17T06:23:27.075Z,97387.02
2023-01-17T06:25:57.697Z,97391.09
2023-01-17T06:28:28.302Z,97395.14
2023-01-17T06:31:00.010Z,97399.71
2023-01-17T06:33:30.438Z,97400.90
2023-01-17T06:36:00.933Z,97402.58
2023-01-17T06:38:31.377Z,97404.78
2023-01-17T06:41:04.488Z,97407.80
2023-01-17T06:43:35.003Z,97413.38
2023-01-17T06:46:05.714Z,97411.50
2023-01-17T06:48:36.129Z,97417.92
2023-01-17T06:51:07.002Z,97420.29
2023-01-17T06:53:37.717Z,97425.19
2023-01-17T06:56:08.838Z,97426.37
2023-01-17T06:58:39.356Z,97431.11
2023-01-17T07:01:12.104Z,97438.88
2023-01-17T07:03:42.844Z,97442.42
2023-01-17T07:06:13.456Z,97442.92
2023-01-17T07:08:43.891Z,97445.30
2023-01-17T07:11:14.603Z,97450.70
2023-01-17T07:13:45.012Z,97457.98
2023-01-17T07:16:15.469Z,97457.80
2023-01-17T07:18:45.876Z,97460.52
2023-01-17T07:21:17.335Z,97465.24
2023-01-17T07:23:48.252Z,97464.56
2023-01-17T07:26:19.531Z,97462.38
2023-01-17T07:28:50.014Z,97465.58
2023-01-17T07:31:20.501Z,97466.60
2023-01-17T07:33:50.928Z,97465.92
2023-01-17T07:36:22.259Z,97470.84
2023-01-17T07:38:52.718Z,97477.10
2023-01-17T07:41:23.176Z,97468.67
2023-01-17T07:43:56.197Z,97467.99
2023-01-17T07:46:26.988Z,97462.26
2023-01-17T07:48:57.522Z,97472.23
2023-01-17T07:51:27.920Z,97476.13
2023-01-17T07:53:58.398Z,97485.45
2023-01-17T07:56:29.166Z,97488.00
2023-01-17T07:58:59.689Z,97489.20
2023-01-17T08:01:30.255Z,97494.77
2023-01-17T08:04:00.884Z,97501.55
2023-01-17T08:06:31.796Z,97503.77
2023-01-17T08:09:02.319Z,97503.44
2023-01-17T08:11:32.787Z,97507.34
2023-01-17T08:14:03.286Z,97512.77
2023-01-17T08:16:33.706Z,97518.87
2023-01-17T08:19:04.249Z,97520.73
2023-01-17T08:21:34.670Z,97525.98
2023-01-17T08:24:05.491Z,97527.04
2023-01-17T08:26:36.232Z,97526.20
2023-01-17T08:29:06.712Z,97527.39
2023-01-17T08:31:37.929Z,97527.42
2023-01-17T08:34:08.452Z,97526.58
2023-01-17T08:36:38.862Z,97536.59
2023-01-17T08:39:09.292Z,97536.60
2023-01-17T08:41:40.113Z,97537.30
2023-01-17T08:44:10.980Z,97540.02
2023-01-17T08:46:44.176Z,97541.58
2023-01-17T08:49:15.097Z,97544.11
2023-01-17T08:51:45.555Z,97543.15
2023-01-17T08:54:16.664Z,97545.16
2023-01-17T08:56:47.678Z,97551.80
2023-01-17T08:59:18.408Z,97549.79
2023-01-17T09:01:49.018Z,97545.88
2023-01-17T09:04:19.612Z,97548.61
2023-01-17T09:06:50.205Z,97555.73
2023-01-17T09:09:20.675Z,97557.09
2023-01-17T09:11:51.135Z,97554.55
2023-01-17T09:14:21.911Z,97552.86
2023-01-17T09:16:52.354Z,97554.04
2023-01-17T09:19:22.829Z,97557.45
2023-01-17T09:21:53.245Z,97562.35
2023-01-17T09:24:23.702Z,97569.15
2023-01-17T09:26:54.132Z,97564.75
2023-01-17T09:29:24.706Z,97559.65
2023-01-17T09:31:55.150Z,97563.22
2023-01-17T09:34:25.644Z,97565.24
2023-01-17T09:36:56.999Z,97558.30
2023-01-17T09:39:27.642Z,97559.47
2023-01-17T09:42:04.147Z,97563.20
2023-01-17T09:44:42.343Z,97563.05
2023-01-17T09:47:33.941Z,97559.80
2023-01-17T09:50:16.845Z,97565.06
2023-01-17T09:52:48.035Z,97564.06
2023-01-17T09:55:20.246Z,97570.33
2023-01-17T09:57:55.008Z,97563.71
2023-01-17T10:00:38.583Z,97564.58
2023-01-17T10:03:28.487Z,97565.09
2023-01-17T10:06:34.687Z,97565.59
2023-01-17T10:09:19.297Z,97560.51
2023-01-17T10:12:03.939Z,97562.19
2023-01-17T10:14:53.697Z,97564.23
2023-01-17T10:17:38.693Z,97565.41
2023-01-17T10:20:25.875Z,97567.45
2023-01-17T10:23:12.678Z,97572.01
2023-01-17T10:25:48.796Z,97571.84
2023-01-17T10:28:24.589Z,97571.34
2023-01-17T10:30:59.509Z,97577.09
2023-01-17T10:33:36.332Z,97576.23
2023-01-17T10:36:15.429Z,97581.10
2023-01-17T10:38:48.953Z,97584.11
2023-01-17T10:41:25.319Z,97585.95
2023-01-17T10:44:02.471Z,97589.34
2023-01-17T10:46:40.649Z,97582.89
2023-01-17T10:49:18.858Z,97588.98
2023-01-17T10:52:18.456Z,97592.70
2023-01-17T10:55:05.193Z,97591.48
2023-01-17T10:57:41.810Z,97589.41
2023-01-17T11:00:43.915Z,97589.90
2023-01-17T11:03:16.174Z,97592.61
2023-01-17T11:05:46.775Z,97593.13
2023-01-17T11:08:17.829Z,97586.83
2023-01-17T11:10:51.003Z,97592.89
2023-01-17T11:13:27.077Z,97587.73
2023-01-17T11:16:00.849Z,97586.98
2023-01-17T11:18:33.376Z,97590.17
2023-01-17T11:21:15.366Z,97593.70
2023-01-17T11:23:47.824Z,97586.39
2023-01-17T11:26:28.117Z,97582.67
2023-01-17T11:29:17.977Z,97576.16
2023-01-17T11:31:48.403Z,97575.59
2023-01-17T11:34:23.837Z,97576.20
2023-01-17T11:37:11.181Z,97568.49
2023-01-17T11:39:43.559Z,97571.70
2023-01-17T11:42:34.839Z,97573.70
2023-01-17T11:45:25.414Z,97576.73
2023-01-17T11:48:14.005Z,97573.61
2023-01-17T11:50:48.711Z,97578.95
2023-01-17T11:53:23.618Z,97579.55
2023-01-17T11:56:02.768Z,97578.45
2023-01-17T11:58:36.217Z,97583.13
2023-01-17T12:01:21.416Z,97581.00
2023-01-17T12:04:16.683Z,97582.98
2023-01-17T12:06:57.886Z,97578.15
2023-01-17T12:09:40.359Z,97581.87
2023-01-17T12:12:41.568Z,97582.88
2023-01-17T12:15:24.441Z,97577.75
2023-01-17T12:18:18.015Z,97578.55
2023-01-17T12:20:57.658Z,97570.65
2023-01-17T12:23:44.403Z,97571.59
2023-01-17T12:26:31.078Z,97567.71
2023-01-17T12:29:16.682Z,97565.90
2023-01-17T12:31:57.938Z,97562.49
2023-01-17T12:34:33.212Z,97564.23
2023-01-17T12:37:16.602Z,97574.02
2023-01-17T12:39:53.803Z,97571.86
2023-01-17T12:42:27.408Z,97572.20
2023-01-17T12:45:03.553Z,97570.34
2023-01-17T12:47:38.545Z,97571.44
2023-01-17T12:50:21.619Z,97566.84
2023-01-17T12:53:00.498Z,97562.30
2023-01-17T12:55:42.888Z,97568.10
2023-01-17T12:58:21.719Z,97563.86
2023-01-17T13:00:59.687Z,97568.47
2023-01-17T13:03:41.312Z,97569.48
2023-01-17T13:06:23.215Z,97564.18
2023-01-17T13:08:59.454Z,97570.97
2023-01-17T13:11:39.080Z,97579.51
2023-01-17T13:14:11.822Z,97580.54
2023-01-17T13:16:47.283Z,97583.27
2023-01-17T13:19:27.170Z,97587.36
2023-01-17T13:22:01.063Z,97598.97
2023-01-17T13:24:43.467Z,97606.14
2023-01-17T13:27:46.619Z,97610.83
2023-01-17T13:30:49.580Z,97625.61
2023-01-17T13:33:33.479Z,97627.60
2023-01-17T13:36:19.333Z,97629.73
2023-01-17T13:39:05.956Z,97638.89
2023-01-17T13:41:52.005Z,97644.09
2023-01-17T13:44:27.182Z,97653.91
2023-01-17T13:47:00.949Z,97659.15
2023-01-17T13:49:47.616Z,97661.66
2023-01-17T13:52:33.553Z,97663.38
2023-01-17T13:55:07.214Z,97661.64
2023-01-17T13:57:43.707Z,97655.01
2023-01-17T14:00:59.530Z,97648.55
2023-01-17T14:04:07.284Z,97656.06
2023-01-17T14:06:41.594Z,97665.51
2023-01-17T14:09:20.556Z,97673.22
2023-01-17T14:11:58.576Z,97676.92
2023-01-17T14:14:56.973Z,97688.31
2023-01-17T14:17:47.991Z,97698.11
2023-01-17T14:20:41.515Z,97710.55
2023-01-17T14:23:28.264Z,97723.27
2023-01-17T14:26:13.409Z,97736.16
2023-01-17T14:28:43.922Z,97744.60
2023-01-17T14:31:16.653Z,97751.31
2023-01-17T14:33:47.145Z,97765.87
2023-01-17T14:36:26.980Z,97768.46
2023-01-17T14:38:57.595Z,97767.66
2023-01-17T14:41:30.454Z,97774.34
2023-01-17T14:44:01.336Z,97780.67
2023-01-17T14:46:33.598Z,97779.00
2023-01-17T14:49:06.921Z,97778.17
2023-01-17T14:51:38.981Z,97775.30
2023-01-17T14:54:19.254Z,97774.46
2023-01-17T14:56:49.763Z,97782.47
2023-01-17T14:59:23.045Z,97780.29
2023-01-17T15:02:07.286Z,97780.12
2023-01-17T15:04:40.383Z,97781.49
2023-01-17T15:07:18.808Z,97784.73
2023-01-17T15:09:49.297Z,97786.42
2023-01-17T15:12:20.052Z,97787.45
2023-01-17T15:14:51.828Z,97789.82
2023-01-17T15:17:24.867Z,97793.89
2023-01-17T15:19:58.729Z,97795.24
2023-01-17T15:22:30.179Z,97794.23
2023-01-17T15:25:02.287Z,97788.61
2023-01-17T15:27:33.317Z,97779.96
2023-01-17T15:30:07.515Z,97776.75
2023-01-17T15:32:39.405Z,97774.71
2023-01-17T15:35:19.894Z,97772.84
2023-01-17T15:37:56.074Z,97772.66
2023-01-17T15:40:28.160Z,97770.82
2023-01-17T15:43:01.402Z,97770.64
2023-01-17T15:45:33.804Z,97769.95
2023-01-17T15:48:37.739Z,97770.78
2023-01-17T15:51:08.979Z,97771.27
2023-01-17T15:53:41.376Z,97770.59
2023-01-17T15:56:32.565Z,97765.98
2023-01-17T15:59:19.057Z,97759.35
2023-01-17T16:01:57.134Z,97761.36
2023-01-17T16:04:37.252Z,97765.73
2023-01-17T16:07:21.001Z,97762.85
2023-01-17T16:09:51.715Z,97760.80
2023-01-17T16:12:22.132Z,97758.07
2023-01-17T16:15:10.727Z,97759.41
2023-01-17T16:17:46.616Z,97759.73
2023-01-17T16:20:22.270Z,97757.36
2023-01-17T16:22:53.998Z,97753.64
2023-01-17T16:25:29.077Z,97749.05
2023-01-17T16:27:59.584Z,97752.08
2023-01-17T16:30:31.782Z,97745.62
2023-01-17T16:33:03.745Z,97740.55
2023-01-17T16:35:35.430Z,97740.02
2023-01-17T16:38:08.697Z,97736.11
2023-01-17T16:40:44.510Z,97736.27
2023-01-17T16:43:16.213Z,97739.83
2023-01-17T16:45:49.384Z,97743.67
2023-01-17T16:48:20.119Z,97741.11
2023-01-17T16:50:53.255Z,97740.59
2023-01-17T16:53:25.459Z,97736.83
2023-01-17T16:55:55.915Z,97730.87
2023-01-17T16:58:26.603Z,97730.13
2023-01-17T17:00:57.854Z,97728.24
2023-01-17T17:03:28.318Z,97727.70
2023-01-17T17:06:01.136Z,97733.80
2023-01-17T17:08:36.553Z,97739.52
2023-01-17T17:11:15.560Z,97744.08
2023-01-17T17:13:49.911Z,97748.13
2023-01-17T17:16:22.449Z,97754.56
2023-01-17T17:18:59.355Z,97761.31
2023-01-17T17:21:31.845Z,97764.35
2023-01-17T17:24:05.119Z,97755.89
2023-01-17T17:26:37.673Z,97746.23
2023-01-17T17:29:10.418Z,97739.77
2023-01-17T17:31:42.046Z,97735.52
2023-01-17T17:34:14.406Z,97743.80
2023-01-17T17:36:43.352Z,97751.02
2023-01-17T17:39:15.820Z,97757.09
2023-01-17T17:41:47.086Z,97763.67
2023-01-17T17:44:17.772Z,97773.64
2023-01-17T17:46:49.307Z,97774.46
2023-01-17T17:49:21.818Z,97770.05
2023-01-17T17:51:53.450Z,97769.87
2023-01-17T17:54:24.733Z,97766.65
2023-01-17T17:56:55.952Z,97762.59
2023-01-17T17:59:26.441Z,97764.10
2023-01-17T18:01:57.096Z,97762.06
2023-01-17T18:04:28.208Z,97764.41
2023-01-17T18:06:59.600Z,97769.80
2023-01-17T18:09:31.119Z,97774.00
2023-01-17T18:12:02.951Z,97785.48
2023-01-17T18:14:34.779Z,97795.80
2023-01-17T18:17:05.235Z,97804.77
2023-01-17T18:19:35.685Z,97809.66
2023-01-17T18:22:08.203Z,97807.96
2023-01-17T18:24:38.787Z,97804.05
2023-01-17T18:27:10.605Z,97804.90
2023-01-17T18:29:41.063Z,97800.84
2023-01-17T18:32:13.220Z,97791.54
2023-01-17T18:34:43.720Z,97790.19
2023-01-17T18:37:14.230Z,97799.30
2023-01-17T18:39:44.672Z,97812.67
2023-01-17T18:42:15.135Z,97825.71
2023-01-17T18:44:45.579Z,97830.45
2023-01-17T18:47:16.577Z,97832.32
2023-01-17T18:49:47.024Z,97828.59
2023-01-17T18:52:19.681Z,97829.11
2023-01-17T18:54:50.175Z,97822.84
2023-01-17T18:57:20.642Z,97818.59
2023-01-17T18:59:51.166Z,97824.66
2023-01-17T19:02:21.685Z,97824.45
2023-01-17T19:04:52.506Z,97826.65
2023-01-17T19:07:24.215Z,97830.55
2023-01-17T19:09:54.824Z,97833.41
2023-01-17T19:12:25.741Z,97835.96
2023-01-17T19:14:56.152Z,97842.89
2023-01-17T19:17:26.676Z,97845.75
2023-01-17T19:19:57.202Z,97850.65
2023-01-17T19:22:27.851Z,97846.74
2023-01-17T19:24:58.251Z,97837.77
2023-01-17T19:27:28.705Z,97826.94
2023-01-17T19:29:59.096Z,97815.59
2023-01-17T19:32:29.608Z,97805.42
2023-01-17T19:35:00.095Z,97805.73
2023-01-17T19:37:30.596Z,97819.95
2023-01-17T19:40:01.060Z,97826.86
2023-01-17T19:42:31.971Z,97827.66
2023-01-17T19:45:02.590Z,97822.05
2023-01-17T19:47:33.996Z,97818.64
2023-01-17T19:50:08.227Z,97824.89
2023-01-17T19:52:38.978Z,97818.95
2023-01-17T19:55:10.874Z,97807.77
2023-01-17T19:57:41.536Z,97803.69
2023-01-17T20:00:17.890Z,97808.75
2023-01-17T20:02:48.664Z,97805.02
2023-01-17T20:05:19.788Z,97807.71
2023-01-17T20:07:50.848Z,97810.58
2023-01-17T20:10:21.507Z,97808.69
2023-01-17T20:12:52.236Z,97803.08
2023-01-17T20:15:24.060Z,97804.91
2023-01-17T20:17:54.911Z,97813.16
2023-01-17T20:20:25.626Z,97820.24
2023-01-17T20:22:56.058Z,97822.42
2023-01-17T20:25:26.517Z,97825.80
2023-01-17T20:27:57.139Z,97827.13
2023-01-17T20:30:30.480Z,97825.75
2023-01-17T20:33:01.336Z,97825.56
2023-01-17T20:35:33.498Z,97825.88
2023-01-17T20:38:03.932Z,97826.02
2023-01-17T20:40:34.380Z,97818.73
2023-01-17T20:43:04.904Z,97819.38
2023-01-17T20:45:35.432Z,97819.17
2023-01-17T20:48:06.102Z,97818.31
2023-01-17T20:50:37.026Z,97820.63
2023-01-17T20:53:07.444Z,97827.83
2023-01-17T20:55:40.029Z,97829.15
2023-01-17T20:58:10.582Z,97833.52
2023-01-17T21:00:41.030Z,97830.12
2023-01-17T21:03:11.460Z,97830.77
2023-01-17T21:05:41.943Z,97829.40
2023-01-17T21:08:17.770Z,97826.66
2023-01-17T21:10:50.622Z,97821.91
2023-01-17T21:13:21.503Z,97812.59
2023-01-17T21:15:52.584Z,97811.55
2023-01-17T21:18:25.319Z,97810.83
2023-01-17T21:20:55.944Z,97814.69
2023-01-17T21:23:29.448Z,97816.17
2023-01-17T21:26:00.483Z,97811.09
2023-01-17T21:28:32.592Z,97810.06
2023-01-17T21:31:16.990Z,97801.95
2023-01-17T21:33:47.858Z,97795.38
2023-01-17T21:36:18.490Z,97784.93
2023-01-17T21:38:52.145Z,97775.30
2023-01-17T21:41:24.658Z,97769.73
2023-01-17T21:43:56.117Z,97776.97
2023-01-17T21:46:27.889Z,97789.75
2023-01-17T21:48:58.635Z,97791.41
2023-01-17T21:51:43.277Z,97796.49
2023-01-17T21:54:14.209Z,97802.05
2023-01-17T21:57:02.571Z,97806.13
2023-01-17T21:59:34.468Z,97800.95
2023-01-17T22:02:04.944Z,97806.89
2023-01-17T22:04:36.195Z,97804.35
2023-01-17T22:07:06.636Z,97798.91
2023-01-17T22:09:37.157Z,97794.85
2023-01-17T22:12:08.873Z,97788.60
2023-01-17T22:14:40.163Z,97782.67
2023-01-17T22:17:10.619Z,97781.46
2023-01-17T22:19:41.092Z,97778.22
2023-01-17T22:22:11.496Z,97784.73
2023-01-17T22:24:41.977Z,97785.71
2023-01-17T22:27:13.745Z,97787.23
2023-01-17T22:29:44.332Z,97787.37
2023-01-17T22:32:14.800Z,97786.17
2023-01-17T22:34:45.236Z,97786.51
2023-01-17T22:37:16.100Z,97781.96
2023-01-17T22:39:46.528Z,97781.13
2023-01-17T22:42:16.932Z,97773.86
2023-01-17T22:44:47.851Z,97778.09
2023-01-17T22:47:18.647Z,97781.15
2023-01-17T22:49:49.136Z,97781.81
2023-01-17T22:52:19.639Z,97779.64
2023-01-17T22:54:51.316Z,97783.84
2023-01-17T22:57:23.215Z,97779.63
2023-01-17T22:59:53.667Z,97780.83
2023-01-17T23:02:24.178Z,97777.13
2023-01-17T23:04:54.660Z,97770.04
2023-01-17T23:07:31.014Z,97765.81
2023-01-17T23:10:01.429Z,97754.98
2023-01-17T23:12:31.903Z,97750.08
2023-01-17T23:15:25.331Z,97750.54
2023-01-17T23:18:14.683Z,97756.05
2023-01-17T23:20:45.092Z,97760.05
2023-01-17T23:23:15.503Z,97764.75
2023-01-17T23:25:45.890Z,97765.09
2023-01-17T23:28:20.955Z,97757.02
2023-01-17T23:30:51.374Z,97752.67
2023-01-17T23:33:21.871Z,97757.77
2023-01-17T23:35:52.345Z,97752.27
2023-01-17T23:38:29.998Z,97752.65
2023-01-17T23:41:23.173Z,97754.23
2023-01-17T23:43:55.118Z,97752.41
2023-01-17T23:46:27.205Z,97747.88
2023-01-17T23:48:57.716Z,97743.19
2023-01-17T23:51:28.217Z,97734.77
2023-01-17T23:54:05.618Z,97735.30
2023-01-17T23:56:36.285Z,97738.36
2023-01-17T23:59:06.748Z,97736.02
